Time;durP1;ratioP1;P1;durP2;ratioP2;P2;SDS_P1;SDS_P2;PMS_P1;PMS_P2;Temp;Humidity;BMP_temperature;BMP_pressure;BME280_temperature;BME280_humidity;BME280_pressure;Samples;Min_cycle;Max_cycle;Signal;HPM_P1;HPM_P2
2023/04/21 00:00:58;;;;;;;0.40;0.30;;;11.00;99.90;;;;;;6121304;23;20718;-77
2023/04/21 00:03:27;;;;;;;0.97;0.50;;;11.00;99.90;;;;;;6123484;23;20913;-77
2023/04/21 00:05:57;;;;;;;0.65;0.40;;;11.00;99.90;;;;;;6121434;23;20382;-76
2023/04/21 00:08:27;;;;;;;0.60;0.40;;;11.00;99.90;;;;;;6121966;23;20376;-77
2023/04/21 00:10:54;;;;;;;0.60;0.40;;;10.90;99.90;;;;;;6120910;23;20378;-77
2023/04/21 00:13:21;;;;;;;0.75;0.50;;;10.90;99.90;;;;;;6123095;23;20380;-77
2023/04/21 00:15:49;;;;;;;1.00;0.60;;;10.90;99.90;;;;;;6122740;23;20459;-77
2023/04/21 00:18:19;;;;;;;0.80;0.50;;;10.90;99.90;;;;;;6121502;23;20376;-76
2023/04/21 00:20:47;;;;;;;1.60;0.50;;;10.90;99.90;;;;;;6122269;23;20705;-76
2023/04/21 00:23:14;;;;;;;0.60;0.50;;;10.90;99.90;;;;;;6122375;23;20378;-76
2023/04/21 00:25:40;;;;;;;0.43;0.38;;;10.90;99.90;;;;;;6120291;23;20368;-76
2023/04/21 00:28:07;;;;;;;0.40;0.40;;;10.90;99.90;;;;;;6120712;23;20747;-76
2023/04/21 00:30:34;;;;;;;0.88;0.50;;;10.90;99.90;;;;;;6122334;23;20368;-76
2023/04/21 00:33:01;;;;;;;0.80;0.75;;;10.90;99.90;;;;;;6120876;23;20376;-76
2023/04/21 00:35:28;;;;;;;0.80;0.60;;;10.90;99.90;;;;;;6123003;23;20672;-77
2023/04/21 00:37:55;;;;;;;1.38;0.60;;;10.90;99.90;;;;;;6120966;23;20372;-77
2023/04/21 00:40:22;;;;;;;0.83;0.40;;;10.90;99.90;;;;;;6121271;23;20457;-76
2023/04/21 00:42:49;;;;;;;0.80;0.50;;;10.90;99.90;;;;;;6121531;23;20703;-76
2023/04/21 00:45:16;;;;;;;1.02;0.60;;;10.90;99.90;;;;;;6121099;23;20372;-77
2023/04/21 00:47:43;;;;;;;0.60;0.50;;;10.90;99.90;;;;;;6122297;23;20389;-76
2023/04/21 00:50:11;;;;;;;1.25;0.50;;;10.90;99.90;;;;;;6120885;23;20830;-76
2023/04/21 00:52:42;;;;;;;0.80;0.50;;;10.90;99.90;;;;;;6121926;23;20378;-76
2023/04/21 00:55:10;;;;;;;0.85;0.40;;;10.90;99.90;;;;;;6120668;23;20372;-76
2023/04/21 00:57:37;;;;;;;0.40;0.40;;;10.90;99.90;;;;;;6122016;23;20380;-77
2023/04/21 01:00:07;;;;;;;0.50;0.50;;;10.90;99.90;;;;;;6120730;23;20372;-77
2023/04/21 10:08:36;;;;;;;1.60;0.50;;;14.70;99.90;;;;;;6107248;23;20398;-81
2023/04/21 10:11:03;;;;;;;0.85;0.55;;;14.70;99.90;;;;;;6152200;23;20397;-82
2023/04/21 10:13:31;;;;;;;0.77;0.40;;;14.60;99.90;;;;;;6152054;23;20677;-82
2023/04/21 10:16:06;;;;;;;0.45;0.40;;;14.50;99.90;;;;;;6152417;23;20404;-83
2023/04/21 10:18:36;;;;;;;0.95;0.40;;;14.50;99.90;;;;;;6151557;23;20829;-82
2023/04/21 10:21:11;;;;;;;0.77;0.40;;;14.40;99.90;;;;;;6152226;23;20422;-82
2023/04/21 10:23:41;;;;;;;0.80;0.30;;;14.40;99.90;;;;;;6151229;23;20390;-82
2023/04/21 10:26:25;;;;;;;0.50;0.30;;;14.30;99.90;;;;;;6153727;23;20366;-82
2023/04/21 10:28:55;;;;;;;0.60;0.50;;;14.30;99.90;;;;;;6151375;23;20433;-82
2023/04/21 10:31:36;;;;;;;1.23;0.60;;;14.30;99.90;;;;;;6152382;23;20457;-83
2023/04/21 10:34:09;;;;;;;0.50;0.40;;;14.30;99.90;;;;;;6151848;23;20801;-83
2023/04/21 10:36:50;;;;;;;0.65;0.50;;;14.20;99.90;;;;;;6151853;23;20409;-82
2023/04/21 10:39:37;;;;;;;0.90;0.40;;;14.20;99.90;;;;;;6139212;23;20377;-81
2023/04/21 10:42:16;;;;;;;0.60;0.43;;;14.20;99.90;;;;;;6151186;23;20855;-81
2023/04/21 10:44:44;;;;;;;1.58;0.60;;;14.20;99.90;;;;;;6152288;23;20956;-81
2023/04/21 10:47:11;;;;;;;1.52;0.85;;;14.20;99.90;;;;;;6151220;23;20406;-81
2023/04/21 10:49:39;;;;;;;0.75;0.60;;;14.20;99.90;;;;;;6152455;23;20425;-82
2023/04/21 10:52:08;;;;;;;0.90;0.60;;;14.20;99.90;;;;;;6152407;23;20380;-81
2023/04/21 10:54:45;;;;;;;0.70;0.43;;;14.10;99.90;;;;;;6153816;23;20836;-82
2023/04/21 10:57:17;;;;;;;0.70;0.57;;;14.10;99.90;;;;;;6151030;23;20438;-84
2023/04/21 10:59:45;;;;;;;0.60;0.40;;;14.10;99.90;;;;;;6152246;23;20478;-83
2023/04/21 11:02:17;;;;;;;0.57;0.32;;;14.00;99.90;;;;;;6143767;23;20386;-83
2023/04/21 11:04:49;;;;;;;1.02;0.40;;;13.90;99.90;;;;;;6122302;23;20717;-81
2023/04/21 11:07:21;;;;;;;0.50;0.40;;;13.80;99.90;;;;;;6121708;23;20375;-83
2023/04/21 11:09:56;;;;;;;0.70;0.50;;;13.70;99.90;;;;;;6122370;23;20430;-82
2023/04/21 11:12:27;;;;;;;0.50;0.40;;;13.60;99.90;;;;;;6121761;23;20751;-82
2023/04/21 11:14:55;;;;;;;0.80;0.60;;;13.60;99.90;;;;;;6122680;23;20372;-82
2023/04/21 11:17:23;;;;;;;1.40;0.85;;;13.50;99.90;;;;;;6097723;23;20383;-81
2023/04/21 11:19:55;;;;;;;1.65;1.10;;;13.50;99.90;;;;;;6123540;23;20376;-82
2023/04/21 11:22:23;;;;;;;1.90;1.20;;;13.40;99.90;;;;;;6122673;23;20451;-82
2023/04/21 11:24:53;;;;;;;1.88;1.10;;;13.40;99.90;;;;;;6121974;23;20441;-80
2023/04/21 11:27:21;;;;;;;1.50;1.00;;;13.30;99.90;;;;;;6121839;23;20376;-82
2023/04/21 11:29:49;;;;;;;2.00;1.17;;;13.30;99.90;;;;;;6123625;23;20403;-82
2023/04/21 11:32:17;;;;;;;1.42;1.20;;;13.20;99.90;;;;;;6121542;23;20395;-81
2023/04/21 11:34:44;;;;;;;1.23;0.90;;;13.20;99.90;;;;;;6123401;23;20411;-81
2023/04/21 11:37:21;;;;;;;1.25;1.00;;;13.20;99.90;;;;;;6121648;23;20388;-83
2023/04/21 11:39:47;;;;;;;1.10;0.80;;;13.20;99.90;;;;;;6122215;23;20382;-82
2023/04/21 11:42:21;;;;;;;1.20;0.85;;;13.20;99.90;;;;;;6121504;23;20410;-82
2023/04/21 11:44:48;;;;;;;1.20;1.10;;;13.30;99.90;;;;;;6122195;23;20375;-82
2023/04/21 11:47:27;;;;;;;1.60;1.20;;;13.40;99.90;;;;;;6120896;23;20380;-82
2023/04/21 11:49:59;;;;;;;1.00;0.90;;;13.40;99.90;;;;;;6122358;23;20735;-82
2023/04/21 11:52:29;;;;;;;0.93;0.80;;;13.40;99.90;;;;;;6121303;23;20683;-82
2023/04/21 11:55:03;;;;;;;1.00;0.80;;;13.40;99.90;;;;;;6146320;23;20399;-81
2023/04/21 11:57:31;;;;;;;1.40;0.73;;;13.50;99.90;;;;;;6122038;23;20702;-82
2023/04/21 12:00:05;;;;;;;0.80;0.80;;;13.40;99.90;;;;;;6121655;23;20387;-82
2023/04/21 12:02:32;;;;;;;0.60;0.60;;;13.40;99.90;;;;;;6120431;23;20470;-81
2023/04/21 12:05:07;;;;;;;0.85;0.70;;;13.40;99.90;;;;;;6121723;23;20379;-82
2023/04/21 12:07:38;;;;;;;0.70;0.60;;;13.40;99.90;;;;;;6117021;23;20536;-83
2023/04/21 12:10:13;;;;;;;0.93;0.70;;;13.40;99.90;;;;;;6121479;23;20384;-81
2023/04/21 12:12:41;;;;;;;0.90;0.80;;;13.50;99.90;;;;;;6122365;23;20403;-81
2023/04/21 12:15:10;;;;;;;0.67;0.60;;;13.50;99.90;;;;;;6119111;23;20480;-82
2023/04/21 12:17:38;;;;;;;1.30;0.77;;;13.60;99.90;;;;;;6120695;23;20372;-82
2023/04/21 12:20:06;;;;;;;0.90;0.60;;;13.70;99.90;;;;;;6118050;23;20683;-81
2023/04/21 12:22:33;;;;;;;0.50;0.50;;;13.80;99.90;;;;;;6119487;23;20451;-81
2023/04/21 12:25:02;;;;;;;0.63;0.50;;;13.90;99.90;;;;;;6121153;23;20929;-81
2023/04/21 12:27:31;;;;;;;1.00;0.70;;;14.00;99.90;;;;;;6119673;23;20379;-81
2023/04/21 12:29:58;;;;;;;0.80;0.60;;;14.00;99.90;;;;;;6121983;23;20455;-81
2023/04/21 12:32:25;;;;;;;0.98;0.88;;;14.00;99.90;;;;;;6120411;23;20379;-81
2023/04/21 12:34:52;;;;;;;0.93;0.85;;;14.00;99.90;;;;;;6121863;23;20379;-81
2023/04/21 12:37:19;;;;;;;0.90;0.70;;;14.00;99.90;;;;;;6120689;23;20410;-82
2023/04/21 12:39:45;;;;;;;1.00;0.90;;;14.00;99.90;;;;;;6121797;23;20380;-82
2023/04/21 12:42:12;;;;;;;1.05;0.90;;;13.90;99.90;;;;;;6121507;23;20458;-81
2023/04/21 12:44:39;;;;;;;0.85;0.80;;;13.90;99.90;;;;;;6119729;23;20767;-81
2023/04/21 12:47:06;;;;;;;1.00;0.80;;;13.90;99.90;;;;;;6120942;23;20391;-81
2023/04/21 12:49:33;;;;;;;0.47;0.43;;;14.00;99.90;;;;;;6120685;23;20427;-82
2023/04/21 12:52:00;;;;;;;0.55;0.45;;;14.00;99.90;;;;;;6121592;23;20758;-81
2023/04/21 12:54:27;;;;;;;0.80;0.60;;;14.00;99.90;;;;;;6120721;23;20375;-82
2023/04/21 12:56:54;;;;;;;0.50;0.50;;;14.00;99.30;;;;;;6120968;23;20376;-81
2023/04/21 12:59:21;;;;;;;0.55;0.50;;;14.10;99.90;;;;;;6121014;23;20375;-81
2023/04/21 13:01:49;;;;;;;0.80;0.63;;;14.20;99.90;;;;;;6121130;23;20459;-82
2023/04/21 13:04:16;;;;;;;0.80;0.73;;;14.20;99.90;;;;;;6121534;23;20459;-82
2023/04/21 13:06:43;;;;;;;0.60;0.60;;;14.30;99.90;;;;;;6108250;23;21481;-81
2023/04/21 13:09:10;;;;;;;0.60;0.60;;;14.40;99.90;;;;;;6120272;23;20399;-82
2023/04/21 13:11:37;;;;;;;0.60;0.60;;;14.50;99.90;;;;;;6117487;23;20372;-82
2023/04/21 13:14:04;;;;;;;1.60;0.70;;;14.70;99.90;;;;;;6122565;23;20412;-82
2023/04/21 13:16:31;;;;;;;0.82;0.70;;;14.80;99.00;;;;;;6118620;23;20763;-82
2023/04/21 13:18:58;;;;;;;1.10;1.00;;;14.80;98.70;;;;;;6116059;23;20372;-83
2023/04/21 13:21:25;;;;;;;1.17;0.90;;;14.90;98.20;;;;;;6121595;23;20703;-83
2023/04/21 13:23:52;;;;;;;0.75;0.70;;;15.00;97.20;;;;;;6097086;23;20368;-83
2023/04/21 13:26:19;;;;;;;1.67;1.23;;;15.10;96.80;;;;;;6120966;23;20873;-83
2023/04/21 13:28:46;;;;;;;1.17;1.08;;;15.20;97.50;;;;;;6108517;23;20395;-83
2023/04/21 13:31:13;;;;;;;1.35;0.88;;;15.30;97.00;;;;;;6121240;23;20458;-82
2023/04/21 13:33:41;;;;;;;0.70;0.70;;;15.40;96.20;;;;;;6120645;23;20382;-83
2023/04/21 13:36:09;;;;;;;1.02;0.93;;;15.50;95.50;;;;;;6122945;23;20695;-83
2023/04/21 13:38:39;;;;;;;1.20;1.10;;;15.70;95.00;;;;;;6122021;23;20758;-83
2023/04/21 13:41:07;;;;;;;1.52;1.30;;;15.80;93.30;;;;;;6120995;23;20384;-83
2023/04/21 13:43:34;;;;;;;1.20;1.10;;;15.90;92.30;;;;;;6118622;23;20467;-83
2023/04/21 13:46:01;;;;;;;1.20;1.00;;;16.00;92.30;;;;;;6124089;23;20399;-84
2023/04/21 13:48:28;;;;;;;1.33;1.17;;;16.00;92.20;;;;;;6121438;23;20861;-83
2023/04/21 13:50:55;;;;;;;1.73;1.25;;;16.10;91.90;;;;;;6120665;23;20371;-84
2023/04/21 13:53:22;;;;;;;1.50;1.33;;;16.10;91.00;;;;;;6121922;23;20380;-82
2023/04/21 13:55:50;;;;;;;2.33;1.95;;;16.20;90.80;;;;;;6110158;23;20659;-82
2023/04/21 13:58:17;;;;;;;2.13;1.60;;;16.40;89.30;;;;;;6122830;23;20376;-84
2023/04/21 14:00:43;;;;;;;1.83;1.50;;;16.40;88.90;;;;;;6122626;23;20371;-83
2023/04/21 14:03:10;;;;;;;2.50;2.15;;;16.40;88.20;;;;;;6122283;23;20388;-84
2023/04/21 14:05:38;;;;;;;2.33;2.13;;;16.40;85.30;;;;;;6122089;23;20410;-83
2023/04/21 14:08:06;;;;;;;2.90;2.47;;;16.40;89.20;;;;;;6122312;23;20399;-83
2023/04/21 14:10:32;;;;;;;3.10;2.80;;;16.50;87.00;;;;;;6122252;23;20382;-84
2023/04/21 14:13:00;;;;;;;2.33;2.13;;;16.60;83.90;;;;;;6126999;23;20380;-84
2023/04/21 14:15:27;;;;;;;3.13;2.72;;;16.60;86.10;;;;;;6121974;23;20395;-83
2023/04/21 14:17:55;;;;;;;3.58;3.10;;;16.70;84.30;;;;;;6122294;23;20380;-83
2023/04/21 14:20:22;;;;;;;2.90;2.63;;;16.80;83.80;;;;;;6122705;23;20380;-84
2023/04/21 14:22:49;;;;;;;3.25;2.95;;;16.90;82.70;;;;;;6123627;23;20383;-84
2023/04/21 14:25:16;;;;;;;3.33;3.03;;;16.90;79.80;;;;;;6122914;23;20375;-84
2023/04/21 14:27:43;;;;;;;3.92;3.47;;;16.90;77.90;;;;;;6121863;23;20431;-84
2023/04/21 14:30:10;;;;;;;4.13;3.55;;;16.90;79.70;;;;;;6122340;23;20430;-82
2023/04/21 14:32:43;;;;;;;3.53;3.22;;;17.00;80.90;;;;;;6121933;23;20459;-82
2023/04/21 14:35:11;;;;;;;3.83;3.03;;;16.90;78.90;;;;;;6122769;23;20372;-85
2023/04/21 14:37:39;;;;;;;3.47;3.17;;;16.90;78.20;;;;;;6122258;23;20372;-83
2023/04/21 14:40:07;;;;;;;4.07;3.75;;;16.90;78.40;;;;;;6123956;23;20702;-82
2023/04/21 14:42:35;;;;;;;3.95;3.58;;;16.90;81.00;;;;;;6121690;23;20399;-82
2023/04/21 14:45:01;;;;;;;3.97;3.67;;;16.80;79.40;;;;;;6123175;23;20702;-83
2023/04/21 14:47:29;;;;;;;4.25;3.85;;;16.80;79.10;;;;;;6121285;23;20838;-81
2023/04/21 14:49:56;;;;;;;3.50;3.20;;;16.70;79.10;;;;;;6122654;23;20698;-83
2023/04/21 14:52:24;;;;;;;5.20;4.70;;;16.70;80.70;;;;;;6122198;23;20380;-83
2023/04/21 14:54:51;;;;;;;5.30;4.80;;;16.60;79.60;;;;;;6120755;23;20750;-82
2023/04/21 14:57:20;;;;;;;5.20;4.70;;;16.60;79.30;;;;;;6123106;23;20387;-83
2023/04/21 14:59:51;;;;;;;5.10;4.38;;;16.50;80.00;;;;;;6122725;23;20404;-83
2023/04/21 15:02:19;;;;;;;3.90;3.50;;;16.50;80.70;;;;;;6121599;23;20446;-82
2023/04/21 15:04:47;;;;;;;5.05;4.55;;;16.50;81.20;;;;;;6121292;23;20766;-83
2023/04/21 15:07:14;;;;;;;4.85;4.43;;;16.50;82.40;;;;;;6122890;23;20380;-83
2023/04/21 15:09:49;;;;;;;4.90;4.50;;;16.50;81.00;;;;;;6121633;23;20729;-83
2023/04/21 15:12:16;;;;;;;5.13;4.63;;;16.50;81.40;;;;;;6122744;23;20385;-83
2023/04/21 15:14:43;;;;;;;6.20;5.50;;;16.40;81.10;;;;;;6121430;23;20368;-83
2023/04/21 15:17:10;;;;;;;5.93;5.32;;;16.40;80.90;;;;;;6122252;23;20376;-83
2023/04/21 15:19:37;;;;;;;5.60;5.07;;;16.30;81.50;;;;;;6121879;23;20442;-83
2023/04/21 15:22:04;;;;;;;5.85;5.22;;;16.30;82.70;;;;;;6122515;23;20386;-85
2023/04/21 15:24:31;;;;;;;5.18;4.68;;;16.40;82.60;;;;;;6121410;23;20408;-81
2023/04/21 15:26:58;;;;;;;6.22;5.43;;;16.40;83.50;;;;;;6123633;23;20371;-85
2023/04/21 15:29:27;;;;;;;6.07;5.47;;;16.30;81.30;;;;;;6122632;23;20382;-83
2023/04/21 15:31:54;;;;;;;5.88;5.05;;;16.30;80.10;;;;;;6121352;23;20384;-83
2023/04/21 15:34:21;;;;;;;5.50;4.57;;;16.20;80.50;;;;;;6121845;23;20427;-82
2023/04/21 15:36:48;;;;;;;5.18;4.68;;;16.20;79.90;;;;;;6121485;23;20443;-82
2023/04/21 15:39:15;;;;;;;5.30;4.80;;;16.20;80.30;;;;;;6122467;23;20395;-83
2023/04/21 15:41:42;;;;;;;6.32;5.72;;;16.20;80.40;;;;;;6121436;23;20379;-83
2023/04/21 15:44:09;;;;;;;6.35;5.70;;;16.20;80.30;;;;;;6122245;23;20379;-83
2023/04/21 15:46:36;;;;;;;5.97;5.37;;;16.30;80.50;;;;;;6121490;23;20612;-85
2023/04/21 15:49:04;;;;;;;4.70;4.15;;;16.20;79.30;;;;;;6122194;23;20387;-84
2023/04/21 15:51:32;;;;;;;6.27;5.67;;;16.30;79.50;;;;;;6122080;23;20403;-84
2023/04/21 15:54:00;;;;;;;5.38;4.88;;;16.20;77.60;;;;;;6110840;23;20380;-84
2023/04/21 15:56:26;;;;;;;4.80;4.30;;;16.20;77.60;;;;;;6123818;23;20397;-83
2023/04/21 15:58:53;;;;;;;4.30;3.90;;;16.20;78.50;;;;;;6121226;23;20380;-83
2023/04/21 16:01:21;;;;;;;4.38;3.97;;;16.20;78.60;;;;;;6121545;23;20468;-82
2023/04/21 16:03:48;;;;;;;4.53;4.13;;;16.20;78.10;;;;;;6121323;23;20702;-83
2023/04/21 16:06:15;;;;;;;6.00;5.40;;;16.20;77.40;;;;;;6121873;23;20406;-83
2023/04/21 16:08:42;;;;;;;4.57;4.07;;;16.20;76.90;;;;;;6120915;23;20462;-83
2023/04/21 16:11:09;;;;;;;4.05;3.67;;;16.20;77.20;;;;;;6121674;23;20388;-83
2023/04/21 16:13:36;;;;;;;3.60;3.30;;;16.20;77.50;;;;;;6121172;23;20403;-82
2023/04/21 16:16:03;;;;;;;3.60;3.30;;;16.30;77.70;;;;;;6121744;23;20430;-83
2023/04/21 16:18:30;;;;;;;4.20;3.83;;;16.30;77.80;;;;;;6122052;23;20451;-83
2023/04/21 16:20:57;;;;;;;5.30;4.90;;;16.40;76.70;;;;;;6121228;23;20455;-84
2023/04/21 16:23:28;;;;;;;4.80;4.30;;;16.40;76.30;;;;;;6121806;23;20388;-83
2023/04/21 16:25:55;;;;;;;4.00;3.67;;;16.50;76.20;;;;;;6120523;23;20372;-83
2023/04/21 16:28:22;;;;;;;4.00;3.70;;;16.50;76.20;;;;;;6119842;23;20379;-83
2023/04/21 16:30:48;;;;;;;3.88;3.58;;;16.50;75.90;;;;;;6118673;23;20426;-85
2023/04/21 16:33:15;;;;;;;4.50;3.55;;;16.50;75.60;;;;;;6119700;23;20411;-83
2023/04/21 16:35:43;;;;;;;3.92;3.63;;;16.60;75.90;;;;;;6119897;23;20876;-84
2023/04/21 16:38:10;;;;;;;4.15;3.75;;;16.60;75.70;;;;;;6120937;23;20742;-83
2023/04/21 16:40:37;;;;;;;4.18;3.78;;;16.80;75.60;;;;;;6121990;23;20454;-83
2023/04/21 16:43:04;;;;;;;4.57;4.07;;;16.80;75.00;;;;;;6120045;23;20475;-82
2023/04/21 16:45:31;;;;;;;5.53;5.03;;;16.90;74.00;;;;;;6121781;23;20405;-83
2023/04/21 16:47:58;;;;;;;5.05;4.55;;;16.90;73.50;;;;;;6121116;23;20376;-84
2023/04/21 16:50:25;;;;;;;4.73;4.33;;;16.80;72.60;;;;;;6122889;23;20384;-84
2023/04/21 16:52:52;;;;;;;5.25;4.75;;;16.70;72.50;;;;;;6121068;23;20399;-83
2023/04/21 16:55:19;;;;;;;5.22;4.78;;;16.60;72.70;;;;;;6122223;23;20384;-83
2023/04/21 16:57:46;;;;;;;5.18;4.75;;;16.60;73.90;;;;;;6119893;23;20376;-82
2023/04/21 17:00:14;;;;;;;4.60;3.95;;;16.50;73.80;;;;;;6121591;23;20399;-83
2023/04/21 17:02:41;;;;;;;4.75;4.35;;;16.60;74.70;;;;;;6121566;23;20379;-83
2023/04/21 17:05:08;;;;;;;4.67;4.27;;;16.50;73.90;;;;;;6121232;23;20386;-82
2023/04/21 17:07:38;;;;;;;4.20;3.80;;;16.50;74.60;;;;;;6122823;23;20383;-83
2023/04/21 17:10:06;;;;;;;6.07;5.57;;;16.50;74.80;;;;;;6120094;23;20365;-82
2023/04/21 17:12:33;;;;;;;4.90;4.40;;;16.50;74.20;;;;;;6121434;23;20380;-81
2023/04/21 17:15:00;;;;;;;4.88;4.47;;;16.40;74.40;;;;;;6120095;23;20865;-83
2023/04/21 17:17:39;;;;;;;5.18;4.68;;;16.30;74.30;;;;;;6120978;23;20375;-82
2023/04/21 17:20:08;;;;;;;4.00;3.70;;;16.30;75.50;;;;;;6120021;23;20368;-82
2023/04/21 17:22:35;;;;;;;4.57;4.18;;;16.20;75.90;;;;;;6121389;23;20427;-82
2023/04/21 17:25:06;;;;;;;4.10;3.80;;;16.10;77.10;;;;;;6120995;23;20403;-84
2023/04/21 17:27:35;;;;;;;3.60;3.30;;;16.00;77.10;;;;;;6122802;23;20380;-85
2023/04/21 17:30:06;;;;;;;4.57;4.18;;;16.00;77.70;;;;;;6121962;23;20368;-84
2023/04/21 17:32:33;;;;;;;4.65;4.25;;;15.90;77.80;;;;;;6114624;23;20406;-84
2023/04/21 17:35:01;;;;;;;4.07;3.78;;;15.80;78.50;;;;;;6118827;23;20387;-84
2023/04/21 17:37:28;;;;;;;4.63;4.22;;;15.70;78.80;;;;;;6122251;23;20383;-83
2023/04/21 17:39:56;;;;;;;5.30;4.80;;;15.60;78.90;;;;;;6120757;23;20412;-83
2023/04/21 17:42:27;;;;;;;4.88;4.38;;;15.50;80.00;;;;;;6122216;23;20383;-83
2023/04/21 17:44:54;;;;;;;3.92;3.63;;;15.50;80.60;;;;;;6124175;23;20376;-85
2023/04/21 17:47:21;;;;;;;4.38;3.83;;;15.40;82.00;;;;;;6130359;23;20372;-84
2023/04/21 17:49:48;;;;;;;3.97;3.67;;;15.30;82.80;;;;;;6121482;23;20379;-83
2023/04/21 17:52:15;;;;;;;3.38;3.08;;;15.30;83.60;;;;;;6123179;23;20861;-84
2023/04/21 17:54:43;;;;;;;4.28;3.92;;;15.20;84.10;;;;;;6121387;23;20408;-84
2023/04/21 17:57:10;;;;;;;3.38;3.08;;;15.10;85.80;;;;;;6120707;23;20683;-83
2023/04/21 17:59:38;;;;;;;4.05;3.67;;;15.10;85.80;;;;;;6121522;23;20383;-84
2023/04/21 18:02:05;;;;;;;4.03;3.63;;;15.00;87.00;;;;;;6121286;23;20738;-81
2023/04/21 18:04:33;;;;;;;4.30;3.90;;;15.00;88.00;;;;;;6121223;23;20391;-83
2023/04/21 18:07:01;;;;;;;4.10;3.80;;;14.90;88.40;;;;;;6120421;23;20380;-84
2023/04/21 18:09:28;;;;;;;4.90;4.50;;;14.80;89.40;;;;;;6122454;23;20438;-83
2023/04/21 18:11:55;;;;;;;5.32;4.70;;;14.70;91.10;;;;;;6119943;23;20438;-82
2023/04/21 18:14:23;;;;;;;14.77;10.57;;;14.60;90.80;;;;;;6121290;23;20380;-82
2023/04/21 18:16:50;;;;;;;17.05;11.77;;;14.50;91.80;;;;;;6120552;23;20375;-83
2023/04/21 18:19:17;;;;;;;12.57;9.70;;;14.40;93.30;;;;;;6120757;23;20392;-82
2023/04/21 18:21:44;;;;;;;10.82;8.02;;;14.40;93.40;;;;;;6122177;23;20766;-82
2023/04/21 18:24:11;;;;;;;6.90;5.93;;;14.30;93.00;;;;;;6120042;23;20391;-82
2023/04/21 18:26:38;;;;;;;6.13;5.20;;;14.20;93.90;;;;;;6120773;23;20383;-83
2023/04/21 18:29:06;;;;;;;5.85;5.25;;;14.10;95.00;;;;;;6120934;23;20383;-83
2023/04/21 18:31:33;;;;;;;5.50;4.88;;;14.00;97.40;;;;;;6122666;23;20375;-83
2023/04/21 18:34:00;;;;;;;5.00;4.50;;;13.90;97.70;;;;;;6122328;23;20376;-82
2023/04/21 18:36:27;;;;;;;6.32;5.35;;;13.80;98.20;;;;;;6122432;23;20399;-83
2023/04/21 18:38:58;;;;;;;6.00;5.13;;;13.70;99.00;;;;;;6122638;23;20730;-84
2023/04/21 18:41:26;;;;;;;6.13;5.53;;;13.60;99.30;;;;;;6122774;23;20684;-82
2023/04/21 18:43:53;;;;;;;6.55;5.78;;;13.50;99.90;;;;;;6123262;23;20380;-82
2023/04/21 18:46:20;;;;;;;7.53;6.60;;;13.40;99.90;;;;;;6122799;23;20403;-82
2023/04/21 18:48:48;;;;;;;7.60;6.75;;;13.40;99.90;;;;;;6124016;23;20403;-82
2023/04/21 18:51:14;;;;;;;8.38;6.90;;;13.30;99.90;;;;;;6122009;23;20717;-82
2023/04/21 18:53:42;;;;;;;8.52;7.43;;;13.20;99.90;;;;;;6122946;23;20718;-82
2023/04/21 18:56:09;;;;;;;7.90;6.57;;;13.10;99.90;;;;;;6122164;23;20379;-81
2023/04/21 18:58:36;;;;;;;7.05;6.35;;;13.00;99.90;;;;;;6122756;23;20380;-82
2023/04/21 19:01:05;;;;;;;7.68;6.70;;;12.90;99.90;;;;;;6123237;23;20435;-82
2023/04/21 19:03:32;;;;;;;7.95;7.03;;;12.90;99.90;;;;;;6122364;23;20853;-83
2023/04/21 19:06:00;;;;;;;7.00;6.30;;;12.70;99.90;;;;;;6123320;23;20492;-83
2023/04/21 19:08:27;;;;;;;7.47;6.53;;;12.70;99.90;;;;;;6123051;23;20417;-82
2023/04/21 19:11:12;;;;;;;8.75;7.20;;;12.60;99.90;;;;;;6121629;23;20422;-83
2023/04/21 19:13:39;;;;;;;8.00;6.50;;;12.50;99.90;;;;;;6122762;23;20715;-83
2023/04/21 19:16:11;;;;;;;7.72;6.93;;;12.40;99.90;;;;;;6121403;23;20379;-82
2023/04/21 19:18:38;;;;;;;8.50;7.10;;;12.40;99.90;;;;;;6122307;23;20390;-83
2023/04/21 19:21:05;;;;;;;7.50;6.70;;;12.30;99.90;;;;;;6121785;23;20419;-83
2023/04/21 19:23:32;;;;;;;6.85;6.20;;;12.20;99.90;;;;;;6122158;23;20781;-84
2023/04/21 19:26:03;;;;;;;7.28;6.57;;;12.10;99.90;;;;;;6122340;23;20471;-83
2023/04/21 19:28:34;;;;;;;7.50;6.80;;;12.10;99.90;;;;;;6122124;23;20372;-82
2023/04/21 19:31:02;;;;;;;7.50;6.80;;;12.00;99.90;;;;;;6121565;23;20435;-83
2023/04/21 19:33:28;;;;;;;7.47;6.75;;;11.90;99.90;;;;;;6122364;23;20692;-83
2023/04/21 19:35:57;;;;;;;9.30;8.10;;;11.90;99.90;;;;;;6121249;23;20384;-82
2023/04/21 19:38:25;;;;;;;9.77;8.70;;;11.80;99.90;;;;;;6122567;23;20504;-82
2023/04/21 19:40:53;;;;;;;8.90;7.70;;;11.80;99.90;;;;;;6122170;23;20407;-83
2023/04/21 19:43:21;;;;;;;10.18;9.10;;;11.70;99.90;;;;;;6121154;23;20395;-82
2023/04/21 19:45:48;;;;;;;10.30;8.70;;;11.60;99.90;;;;;;6122473;23;20537;-83
2023/04/21 19:48:16;;;;;;;9.65;8.65;;;11.60;99.90;;;;;;6121293;23;20379;-83
2023/04/21 19:50:43;;;;;;;10.32;8.88;;;11.50;99.90;;;;;;6121910;23;20442;-82
2023/04/21 19:53:13;;;;;;;9.97;8.83;;;11.40;99.90;;;;;;6120798;23;20450;-83
2023/04/21 19:55:45;;;;;;;11.57;9.38;;;11.40;99.90;;;;;;6122339;23;20368;-83
2023/04/21 19:58:12;;;;;;;10.52;9.43;;;11.40;99.90;;;;;;6120891;23;20372;-82
2023/04/21 20:00:47;;;;;;;10.02;8.25;;;11.30;99.90;;;;;;6122385;23;20453;-83
2023/04/21 20:03:15;;;;;;;7.88;7.07;;;11.20;99.90;;;;;;6122157;23;20386;-83
2023/04/21 20:05:44;;;;;;;7.93;7.10;;;11.20;99.90;;;;;;6122077;23;20394;-82
2023/04/21 20:08:11;;;;;;;6.88;6.18;;;11.10;99.90;;;;;;6122314;23;20379;-82
2023/04/21 20:10:42;;;;;;;6.55;5.95;;;11.00;99.90;;;;;;6122569;23;20477;-82
2023/04/21 20:13:12;;;;;;;6.43;5.82;;;11.00;99.90;;;;;;6120476;23;20411;-82
2023/04/21 20:15:39;;;;;;;7.55;6.32;;;11.00;99.90;;;;;;6123477;23;20450;-82
2023/04/21 20:18:06;;;;;;;7.10;6.40;;;10.90;99.90;;;;;;6120851;23;20376;-84
2023/04/21 20:20:34;;;;;;;6.57;5.88;;;10.90;99.90;;;;;;6122256;23;20403;-83
2023/04/21 20:23:02;;;;;;;6.70;6.10;;;10.90;99.90;;;;;;6121204;23;20402;-82
2023/04/21 20:25:29;;;;;;;6.45;5.75;;;10.80;99.90;;;;;;6122099;23;20399;-83
2023/04/21 20:27:56;;;;;;;6.03;5.35;;;10.70;99.90;;;;;;6121171;23;20402;-83
2023/04/21 20:30:23;;;;;;;6.95;5.72;;;10.70;99.90;;;;;;6122357;23;20410;-85
2023/04/21 20:32:50;;;;;;;7.18;6.47;;;10.60;99.90;;;;;;6121494;23;20380;-80
2023/04/21 20:35:17;;;;;;;7.38;6.25;;;10.50;99.90;;;;;;6118989;23;20781;-81
2023/04/21 20:37:44;;;;;;;8.50;7.60;;;10.50;99.90;;;;;;6121144;23;20758;-82
2023/04/21 20:40:11;;;;;;;10.30;8.82;;;10.50;99.90;;;;;;6117907;23;20383;-81
2023/04/21 20:42:38;;;;;;;9.68;8.38;;;10.40;99.90;;;;;;6121229;23;20391;-84
2023/04/21 20:45:06;;;;;;;11.07;9.02;;;10.40;99.90;;;;;;6120723;23;20383;-83
2023/04/21 20:47:33;;;;;;;12.55;8.55;;;10.40;99.90;;;;;;6121436;23;20430;-83
2023/04/21 20:50:00;;;;;;;10.35;9.10;;;10.40;99.90;;;;;;6122595;23;20395;-82
2023/04/21 20:52:27;;;;;;;10.70;9.30;;;10.30;99.90;;;;;;6120235;23;20695;-82
2023/04/21 20:54:54;;;;;;;9.15;8.25;;;10.30;99.90;;;;;;6120929;23;20846;-81
2023/04/21 20:57:21;;;;;;;8.07;7.27;;;10.30;99.90;;;;;;6119349;23;20375;-82
2023/04/21 20:59:49;;;;;;;7.43;6.72;;;10.20;99.90;;;;;;6121248;23;20379;-82
2023/04/21 21:02:16;;;;;;;7.78;6.97;;;10.20;99.90;;;;;;6119743;23;20376;-81
2023/04/21 21:04:45;;;;;;;8.77;7.88;;;10.20;99.90;;;;;;6121172;23;20388;-81
2023/04/21 21:07:13;;;;;;;8.52;7.72;;;10.10;99.90;;;;;;6119933;23;20380;-82
2023/04/21 21:09:40;;;;;;;8.15;7.20;;;10.10;99.90;;;;;;6121030;23;20403;-82
2023/04/21 21:12:07;;;;;;;8.37;7.57;;;10.00;99.90;;;;;;6120387;23;20480;-82
2023/04/21 21:14:34;;;;;;;7.85;7.05;;;10.00;99.90;;;;;;6121241;23;20766;-82
2023/04/21 21:17:02;;;;;;;7.30;6.60;;;9.90;99.90;;;;;;6121253;23;20375;-82
2023/04/21 21:19:29;;;;;;;6.85;6.15;;;9.90;99.90;;;;;;6120271;23;20370;-83
2023/04/21 21:21:56;;;;;;;5.65;5.15;;;9.80;99.90;;;;;;6121626;23;20372;-82
2023/04/21 21:24:25;;;;;;;5.20;4.70;;;9.70;99.90;;;;;;6120375;23;20392;-82
2023/04/21 21:26:52;;;;;;;5.78;5.28;;;9.70;99.90;;;;;;6121406;23;20375;-82
2023/04/21 21:29:18;;;;;;;5.95;5.32;;;9.60;99.90;;;;;;6120191;23;20376;-82
2023/04/21 21:31:45;;;;;;;5.82;5.22;;;9.50;99.90;;;;;;6122660;23;20372;-82
2023/04/21 21:34:12;;;;;;;7.32;6.60;;;9.50;99.90;;;;;;6121150;23;20394;-82
2023/04/21 21:36:40;;;;;;;7.67;6.87;;;9.50;99.90;;;;;;6121336;23;20383;-82
2023/04/21 21:39:07;;;;;;;7.82;6.72;;;9.40;99.90;;;;;;6121125;23;20737;-82
2023/04/21 21:41:37;;;;;;;7.17;6.47;;;9.40;99.90;;;;;;6108573;23;20375;-82
2023/04/21 21:44:04;;;;;;;6.97;6.03;;;9.40;99.90;;;;;;6121068;23;20391;-82
2023/04/21 21:46:31;;;;;;;6.70;6.00;;;9.30;99.90;;;;;;6120153;23;20372;-82
2023/04/21 21:49:01;;;;;;;7.13;6.43;;;9.30;99.90;;;;;;6120613;23;20415;-82
2023/04/21 21:51:28;;;;;;;7.10;6.20;;;9.30;99.90;;;;;;6120612;23;20771;-83
2023/04/21 21:53:55;;;;;;;7.97;7.13;;;9.20;99.90;;;;;;6120828;23;20400;-83
2023/04/21 21:56:23;;;;;;;8.43;6.80;;;9.20;99.90;;;;;;6120728;23;20372;-84
2023/04/21 21:58:51;;;;;;;7.47;6.70;;;9.20;99.90;;;;;;6120781;23;20758;-84